sensor_id;sensor_type;location;lat;lon;timestamp;P1;durP1;ratioP1;P2;durP2;ratioP2
60292;SDS011;52402;52.670;6.750;2024-02-16T00:01:59;30.00;;;28.30;;
60292;SDS011;52402;52.670;6.750;2024-02-16T00:04:26;29.38;;;27.67;;
60292;SDS011;52402;52.670;6.750;2024-02-16T00:06:52;29.67;;;27.98;;
60292;SDS011;52402;52.670;6.750;2024-02-16T00:09:18;29.70;;;28.00;;
60292;SDS011;52402;52.670;6.750;2024-02-16T00:11:43;28.58;;;26.98;;
60292;SDS011;52402;52.670;6.750;2024-02-16T00:14:09;28.95;;;27.35;;
60292;SDS011;52402;52.670;6.750;2024-02-16T00:16:35;29.92;;;28.23;;
60292;SDS011;52402;52.670;6.750;2024-02-16T00:19:01;28.02;;;26.42;;
60292;SDS011;52402;52.670;6.750;2024-02-16T00:21:26;25.50;;;24.00;;
60292;SDS011;52402;52.670;6.750;2024-02-16T00:23:52;26.50;;;25.00;;
60292;SDS011;52402;52.670;6.750;2024-02-16T00:26:18;27.35;;;25.85;;
60292;SDS011;52402;52.670;6.750;2024-02-16T00:28:44;26.00;;;24.50;;
60292;SDS011;52402;52.670;6.750;2024-02-16T00:31:10;25.92;;;24.42;;
60292;SDS011;52402;52.670;6.750;2024-02-16T00:33:35;26.73;;;25.23;;
60292;SDS011;52402;52.670;6.750;2024-02-16T00:36:02;26.77;;;25.27;;
60292;SDS011;52402;52.670;6.750;2024-02-16T00:38:28;27.23;;;25.73;;
60292;SDS011;52402;52.670;6.750;2024-02-16T00:40:53;26.40;;;24.90;;
60292;SDS011;52402;52.670;6.750;2024-02-16T00:43:19;26.20;;;24.70;;
60292;SDS011;52402;52.670;6.750;2024-02-16T00:45:45;27.13;;;25.63;;
60292;SDS011;52402;52.670;6.750;2024-02-16T00:48:11;27.35;;;25.85;;
60292;SDS011;52402;52.670;6.750;2024-02-16T00:50:36;27.05;;;25.55;;
60292;SDS011;52402;52.670;6.750;2024-02-16T00:53:02;25.90;;;24.42;;
60292;SDS011;52402;52.670;6.750;2024-02-16T00:55:29;24.73;;;23.33;;
60292;SDS011;52402;52.670;6.750;2024-02-16T00:57:55;25.10;;;23.70;;
60292;SDS011;52402;52.670;6.750;2024-02-16T01:00:21;25.83;;;24.42;;
60292;SDS011;52402;52.670;6.750;2024-02-16T01:02:48;25.25;;;23.85;;
60292;SDS011;52402;52.670;6.750;2024-02-16T01:05:14;23.40;;;22.10;;
60292;SDS011;52402;52.670;6.750;2024-02-16T01:07:43;25.13;;;23.73;;
60292;SDS011;52402;52.670;6.750;2024-02-16T01:10:09;24.90;;;23.50;;
60292;SDS011;52402;52.670;6.750;2024-02-16T01:12:35;24.45;;;23.05;;
60292;SDS011;52402;52.670;6.750;2024-02-16T01:15:01;23.98;;;22.60;;
60292;SDS011;52402;52.670;6.750;2024-02-16T01:17:26;24.00;;;22.65;;
60292;SDS011;52402;52.670;6.750;2024-02-16T01:19:52;24.77;;;23.38;;
60292;SDS011;52402;52.670;6.750;2024-02-16T01:22:17;24.98;;;23.58;;
60292;SDS011;52402;52.670;6.750;2024-02-16T01:24:43;24.70;;;23.30;;
60292;SDS011;52402;52.670;6.750;2024-02-16T01:27:09;25.65;;;24.25;;
60292;SDS011;52402;52.670;6.750;2024-02-16T01:29:36;25.95;;;24.45;;
60292;SDS011;52402;52.670;6.750;2024-02-16T01:32:01;26.67;;;25.17;;
60292;SDS011;52402;52.670;6.750;2024-02-16T01:34:28;26.05;;;24.58;;
60292;SDS011;52402;52.670;6.750;2024-02-16T01:36:55;25.27;;;23.85;;
60292;SDS011;52402;52.670;6.750;2024-02-16T01:39:21;26.88;;;25.38;;
60292;SDS011;52402;52.670;6.750;2024-02-16T01:41:47;26.63;;;25.13;;
60292;SDS011;52402;52.670;6.750;2024-02-16T01:44:13;26.65;;;25.15;;
60292;SDS011;52402;52.670;6.750;2024-02-16T01:46:41;25.63;;;24.23;;
60292;SDS011;52402;52.670;6.750;2024-02-16T01:49:07;27.55;;;26.05;;
60292;SDS011;52402;52.670;6.750;2024-02-16T01:51:33;28.42;;;26.83;;
60292;SDS011;52402;52.670;6.750;2024-02-16T01:54:00;29.13;;;27.52;;
60292;SDS011;52402;52.670;6.750;2024-02-16T01:56:26;26.25;;;24.75;;
60292;SDS011;52402;52.670;6.750;2024-02-16T01:58:53;27.50;;;26.00;;
60292;SDS011;52402;52.670;6.750;2024-02-16T02:01:18;26.92;;;25.42;;
60292;SDS011;52402;52.670;6.750;2024-02-16T02:03:44;25.75;;;24.35;;
60292;SDS011;52402;52.670;6.750;2024-02-16T02:06:10;25.35;;;23.95;;
60292;SDS011;52402;52.670;6.750;2024-02-16T02:08:35;26.05;;;24.60;;
60292;SDS011;52402;52.670;6.750;2024-02-16T02:11:01;24.48;;;23.08;;
60292;SDS011;52402;52.670;6.750;2024-02-16T02:13:27;23.70;;;22.40;;
60292;SDS011;52402;52.670;6.750;2024-02-16T02:15:53;25.63;;;24.23;;
60292;SDS011;52402;52.670;6.750;2024-02-16T02:18:20;23.30;;;22.00;;
60292;SDS011;52402;52.670;6.750;2024-02-16T02:20:45;24.50;;;23.20;;
60292;SDS011;52402;52.670;6.750;2024-02-16T02:23:11;24.42;;;23.13;;
60292;SDS011;52402;52.670;6.750;2024-02-16T02:25:37;23.25;;;21.95;;
60292;SDS011;52402;52.670;6.750;2024-02-16T02:28:03;22.60;;;21.30;;
60292;SDS011;52402;52.670;6.750;2024-02-16T02:30:28;23.00;;;21.70;;
60292;SDS011;52402;52.670;6.750;2024-02-16T02:32:54;23.23;;;21.92;;
60292;SDS011;52402;52.670;6.750;2024-02-16T02:35:19;23.13;;;21.83;;
60292;SDS011;52402;52.670;6.750;2024-02-16T02:37:45;23.00;;;21.70;;
60292;SDS011;52402;52.670;6.750;2024-02-16T02:40:11;23.13;;;21.83;;
60292;SDS011;52402;52.670;6.750;2024-02-16T02:42:37;22.80;;;21.50;;
60292;SDS011;52402;52.670;6.750;2024-02-16T02:45:03;22.90;;;21.60;;
60292;SDS011;52402;52.670;6.750;2024-02-16T02:47:31;24.13;;;22.83;;
60292;SDS011;52402;52.670;6.750;2024-02-16T02:49:58;23.02;;;21.73;;
60292;SDS011;52402;52.670;6.750;2024-02-16T02:52:24;21.77;;;20.58;;
60292;SDS011;52402;52.670;6.750;2024-02-16T02:54:50;23.67;;;22.38;;
60292;SDS011;52402;52.670;6.750;2024-02-16T02:57:15;23.67;;;22.38;;
60292;SDS011;52402;52.670;6.750;2024-02-16T02:59:41;23.85;;;22.55;;
60292;SDS011;52402;52.670;6.750;2024-02-16T03:02:06;21.85;;;20.65;;
60292;SDS011;52402;52.670;6.750;2024-02-16T03:04:34;21.52;;;20.33;;
60292;SDS011;52402;52.670;6.750;2024-02-16T03:07:00;22.58;;;21.27;;
60292;SDS011;52402;52.670;6.750;2024-02-16T03:09:25;22.08;;;20.88;;
60292;SDS011;52402;52.670;6.750;2024-02-16T03:11:51;22.05;;;20.77;;
60292;SDS011;52402;52.670;6.750;2024-02-16T03:14:18;23.20;;;21.90;;
60292;SDS011;52402;52.670;6.750;2024-02-16T03:16:44;23.10;;;21.80;;
60292;SDS011;52402;52.670;6.750;2024-02-16T03:19:10;22.30;;;21.00;;
60292;SDS011;52402;52.670;6.750;2024-02-16T03:21:36;21.42;;;20.23;;
60292;SDS011;52402;52.670;6.750;2024-02-16T03:24:02;22.50;;;21.20;;
60292;SDS011;52402;52.670;6.750;2024-02-16T03:26:29;22.90;;;21.60;;
60292;SDS011;52402;52.670;6.750;2024-02-16T03:28:59;21.40;;;20.20;;
60292;SDS011;52402;52.670;6.750;2024-02-16T03:31:24;21.70;;;20.50;;
60292;SDS011;52402;52.670;6.750;2024-02-16T03:33:50;21.90;;;20.70;;
60292;SDS011;52402;52.670;6.750;2024-02-16T03:36:17;23.77;;;22.48;;
60292;SDS011;52402;52.670;6.750;2024-02-16T03:38:47;23.67;;;22.38;;
60292;SDS011;52402;52.670;6.750;2024-02-16T03:41:20;22.80;;;21.50;;
60292;SDS011;52402;52.670;6.750;2024-02-16T03:43:47;22.25;;;20.98;;
60292;SDS011;52402;52.670;6.750;2024-02-16T03:46:12;22.00;;;20.80;;
60292;SDS011;52402;52.670;6.750;2024-02-16T03:48:38;22.55;;;21.25;;
60292;SDS011;52402;52.670;6.750;2024-02-16T03:51:05;23.05;;;21.75;;
60292;SDS011;52402;52.670;6.750;2024-02-16T03:53:30;22.48;;;21.17;;
60292;SDS011;52402;52.670;6.750;2024-02-16T03:55:56;21.77;;;20.58;;
60292;SDS011;52402;52.670;6.750;2024-02-16T03:58:22;21.70;;;20.50;;
60292;SDS011;52402;52.670;6.750;2024-02-16T04:00:48;22.08;;;20.85;;
60292;SDS011;52402;52.670;6.750;2024-02-16T04:03:14;20.88;;;19.67;;
60292;SDS011;52402;52.670;6.750;2024-02-16T04:05:40;20.45;;;19.25;;
60292;SDS011;52402;52.670;6.750;2024-02-16T04:08:06;20.40;;;19.20;;
60292;SDS011;52402;52.670;6.750;2024-02-16T04:10:32;21.67;;;20.48;;
60292;SDS011;52402;52.670;6.750;2024-02-16T04:12:58;20.92;;;19.73;;
60292;SDS011;52402;52.670;6.750;2024-02-16T04:15:24;20.15;;;18.95;;
60292;SDS011;52402;52.670;6.750;2024-02-16T04:17:49;20.77;;;19.58;;
60292;SDS011;52402;52.670;6.750;2024-02-16T04:20:15;20.88;;;19.67;;
60292;SDS011;52402;52.670;6.750;2024-02-16T04:22:41;21.25;;;20.05;;
60292;SDS011;52402;52.670;6.750;2024-02-16T04:25:07;20.63;;;19.42;;
60292;SDS011;52402;52.670;6.750;2024-02-16T04:27:34;20.55;;;19.35;;
60292;SDS011;52402;52.670;6.750;2024-02-16T04:30:00;19.90;;;18.80;;
60292;SDS011;52402;52.670;6.750;2024-02-16T04:32:26;20.50;;;19.30;;
60292;SDS011;52402;52.670;6.750;2024-02-16T04:34:51;21.10;;;19.90;;
60292;SDS011;52402;52.670;6.750;2024-02-16T04:37:17;21.42;;;20.23;;
60292;SDS011;52402;52.670;6.750;2024-02-16T04:39:44;21.25;;;20.05;;
60292;SDS011;52402;52.670;6.750;2024-02-16T04:42:10;20.60;;;19.40;;
60292;SDS011;52402;52.670;6.750;2024-02-16T04:44:39;20.58;;;19.38;;
60292;SDS011;52402;52.670;6.750;2024-02-16T04:47:04;20.63;;;19.52;;
60292;SDS011;52402;52.670;6.750;2024-02-16T04:49:30;19.73;;;18.63;;
60292;SDS011;52402;52.670;6.750;2024-02-16T04:51:56;21.50;;;20.30;;
60292;SDS011;52402;52.670;6.750;2024-02-16T04:54:21;20.40;;;19.30;;
60292;SDS011;52402;52.670;6.750;2024-02-16T04:56:47;21.48;;;20.27;;
60292;SDS011;52402;52.670;6.750;2024-02-16T04:59:14;22.23;;;21.02;;
60292;SDS011;52402;52.670;6.750;2024-02-16T05:01:40;21.52;;;20.33;;
60292;SDS011;52402;52.670;6.750;2024-02-16T05:04:06;20.92;;;19.73;;
60292;SDS011;52402;52.670;6.750;2024-02-16T05:06:32;20.88;;;19.67;;
60292;SDS011;52402;52.670;6.750;2024-02-16T05:08:57;19.65;;;18.55;;
60292;SDS011;52402;52.670;6.750;2024-02-16T05:11:23;20.23;;;19.02;;
60292;SDS011;52402;52.670;6.750;2024-02-16T05:13:50;20.30;;;19.10;;
60292;SDS011;52402;52.670;6.750;2024-02-16T05:16:16;20.73;;;19.52;;
60292;SDS011;52402;52.670;6.750;2024-02-16T05:18:41;20.38;;;19.27;;
60292;SDS011;52402;52.670;6.750;2024-02-16T05:21:07;21.02;;;19.83;;
60292;SDS011;52402;52.670;6.750;2024-02-16T05:23:33;20.23;;;19.08;;
60292;SDS011;52402;52.670;6.750;2024-02-16T05:25:58;21.65;;;20.45;;
60292;SDS011;52402;52.670;6.750;2024-02-16T05:28:24;19.48;;;18.38;;
60292;SDS011;52402;52.670;6.750;2024-02-16T05:30:50;19.70;;;18.60;;
60292;SDS011;52402;52.670;6.750;2024-02-16T05:33:15;20.75;;;19.55;;
60292;SDS011;52402;52.670;6.750;2024-02-16T05:35:41;19.90;;;18.77;;
60292;SDS011;52402;52.670;6.750;2024-02-16T05:38:09;19.08;;;17.98;;
60292;SDS011;52402;52.670;6.750;2024-02-16T05:40:56;19.83;;;18.73;;
60292;SDS011;52402;52.670;6.750;2024-02-16T05:43:23;20.58;;;19.38;;
60292;SDS011;52402;52.670;6.750;2024-02-16T05:45:49;20.70;;;19.50;;
60292;SDS011;52402;52.670;6.750;2024-02-16T05:48:14;19.58;;;18.48;;
60292;SDS011;52402;52.670;6.750;2024-02-16T05:50:40;19.65;;;18.55;;
60292;SDS011;52402;52.670;6.750;2024-02-16T05:53:07;19.50;;;18.40;;
60292;SDS011;52402;52.670;6.750;2024-02-16T05:55:35;19.50;;;18.40;;
60292;SDS011;52402;52.670;6.750;2024-02-16T05:58:01;19.60;;;18.50;;
60292;SDS011;52402;52.670;6.750;2024-02-16T06:00:27;18.63;;;17.52;;
60292;SDS011;52402;52.670;6.750;2024-02-16T06:02:53;19.20;;;18.10;;
60292;SDS011;52402;52.670;6.750;2024-02-16T06:05:19;20.30;;;19.10;;
60292;SDS011;52402;52.670;6.750;2024-02-16T06:07:45;19.67;;;18.58;;
60292;SDS011;52402;52.670;6.750;2024-02-16T06:10:11;19.20;;;18.10;;
60292;SDS011;52402;52.670;6.750;2024-02-16T06:12:37;20.05;;;18.85;;
60292;SDS011;52402;52.670;6.750;2024-02-16T06:15:04;19.90;;;18.70;;
60292;SDS011;52402;52.670;6.750;2024-02-16T06:17:30;20.63;;;19.42;;
60292;SDS011;52402;52.670;6.750;2024-02-16T06:19:55;19.42;;;18.33;;
60292;SDS011;52402;52.670;6.750;2024-02-16T06:22:21;19.55;;;18.40;;
60292;SDS011;52402;52.670;6.750;2024-02-16T06:24:47;20.13;;;18.92;;
60292;SDS011;52402;52.670;6.750;2024-02-16T06:27:12;20.25;;;19.05;;
60292;SDS011;52402;52.670;6.750;2024-02-16T06:29:38;20.10;;;18.90;;
60292;SDS011;52402;52.670;6.750;2024-02-16T06:32:05;19.48;;;18.38;;
60292;SDS011;52402;52.670;6.750;2024-02-16T06:34:31;20.30;;;19.10;;
60292;SDS011;52402;52.670;6.750;2024-02-16T06:36:57;19.70;;;18.50;;
60292;SDS011;52402;52.670;6.750;2024-02-16T06:39:22;19.23;;;18.13;;
60292;SDS011;52402;52.670;6.750;2024-02-16T06:41:48;18.92;;;17.83;;
60292;SDS011;52402;52.670;6.750;2024-02-16T06:44:14;19.80;;;18.60;;
60292;SDS011;52402;52.670;6.750;2024-02-16T06:46:41;21.27;;;19.98;;
60292;SDS011;52402;52.670;6.750;2024-02-16T06:49:07;19.60;;;18.42;;
60292;SDS011;52402;52.670;6.750;2024-02-16T06:51:33;20.83;;;19.52;;
60292;SDS011;52402;52.670;6.750;2024-02-16T06:53:59;20.40;;;19.20;;
60292;SDS011;52402;52.670;6.750;2024-02-16T06:56:25;20.08;;;18.88;;
60292;SDS011;52402;52.670;6.750;2024-02-16T06:58:51;19.63;;;18.42;;
60292;SDS011;52402;52.670;6.750;2024-02-16T07:01:17;19.40;;;18.20;;
60292;SDS011;52402;52.670;6.750;2024-02-16T07:03:46;19.75;;;18.55;;
60292;SDS011;52402;52.670;6.750;2024-02-16T07:06:12;19.95;;;18.75;;
60292;SDS011;52402;52.670;6.750;2024-02-16T07:08:42;20.83;;;19.52;;
60292;SDS011;52402;52.670;6.750;2024-02-16T07:11:09;20.48;;;19.17;;
60292;SDS011;52402;52.670;6.750;2024-02-16T07:13:41;20.25;;;18.98;;
60292;SDS011;52402;52.670;6.750;2024-02-16T07:16:07;19.95;;;18.75;;
60292;SDS011;52402;52.670;6.750;2024-02-16T07:18:34;19.40;;;18.20;;
60292;SDS011;52402;52.670;6.750;2024-02-16T07:21:01;19.30;;;18.10;;
60292;SDS011;52402;52.670;6.750;2024-02-16T07:23:29;18.30;;;17.20;;
60292;SDS011;52402;52.670;6.750;2024-02-16T07:25:55;18.13;;;17.02;;
60292;SDS011;52402;52.670;6.750;2024-02-16T07:28:25;18.08;;;16.98;;
60292;SDS011;52402;52.670;6.750;2024-02-16T07:30:51;20.20;;;19.00;;
60292;SDS011;52402;52.670;6.750;2024-02-16T07:33:18;18.85;;;17.65;;
60292;SDS011;52402;52.670;6.750;2024-02-16T07:35:44;19.10;;;17.90;;
60292;SDS011;52402;52.670;6.750;2024-02-16T07:38:10;18.05;;;16.95;;
60292;SDS011;52402;52.670;6.750;2024-02-16T07:40:36;18.10;;;17.00;;
60292;SDS011;52402;52.670;6.750;2024-02-16T07:43:02;18.45;;;17.35;;
60292;SDS011;52402;52.670;6.750;2024-02-16T07:45:30;18.55;;;17.40;;
60292;SDS011;52402;52.670;6.750;2024-02-16T07:47:56;18.17;;;17.08;;
60292;SDS011;52402;52.670;6.750;2024-02-16T07:50:22;18.55;;;17.38;;
60292;SDS011;52402;52.670;6.750;2024-02-16T07:52:48;19.00;;;17.80;;
60292;SDS011;52402;52.670;6.750;2024-02-16T07:55:15;18.25;;;17.15;;
60292;SDS011;52402;52.670;6.750;2024-02-16T07:57:45;17.88;;;16.77;;
60292;SDS011;52402;52.670;6.750;2024-02-16T08:00:12;18.83;;;17.63;;
60292;SDS011;52402;52.670;6.750;2024-02-16T08:02:40;18.10;;;17.00;;
60292;SDS011;52402;52.670;6.750;2024-02-16T08:05:10;19.08;;;17.88;;
60292;SDS011;52402;52.670;6.750;2024-02-16T08:07:37;18.90;;;17.70;;
60292;SDS011;52402;52.670;6.750;2024-02-16T08:12:33;18.90;;;17.70;;
60292;SDS011;52402;52.670;6.750;2024-02-16T08:15:01;19.20;;;18.00;;
60292;SDS011;52402;52.670;6.750;2024-02-16T08:17:29;18.42;;;17.33;;
60292;SDS011;52402;52.670;6.750;2024-02-16T08:19:55;18.85;;;17.65;;
60292;SDS011;52402;52.670;6.750;2024-02-16T08:22:21;20.75;;;19.45;;
60292;SDS011;52402;52.670;6.750;2024-02-16T08:24:47;19.30;;;18.10;;
60292;SDS011;52402;52.670;6.750;2024-02-16T08:27:14;18.95;;;17.75;;
60292;SDS011;52402;52.670;6.750;2024-02-16T08:29:41;19.25;;;18.05;;
60292;SDS011;52402;52.670;6.750;2024-02-16T08:32:07;19.45;;;18.25;;
60292;SDS011;52402;52.670;6.750;2024-02-16T08:34:34;19.45;;;18.25;;
60292;SDS011;52402;52.670;6.750;2024-02-16T08:37:02;20.35;;;19.05;;
60292;SDS011;52402;52.670;6.750;2024-02-16T08:39:28;19.65;;;18.45;;
60292;SDS011;52402;52.670;6.750;2024-02-16T08:41:55;19.77;;;18.58;;
60292;SDS011;52402;52.670;6.750;2024-02-16T08:44:21;19.10;;;17.90;;
60292;SDS011;52402;52.670;6.750;2024-02-16T08:46:47;19.27;;;18.08;;
60292;SDS011;52402;52.670;6.750;2024-02-16T08:49:14;18.95;;;17.75;;
60292;SDS011;52402;52.670;6.750;2024-02-16T08:51:40;18.77;;;17.58;;
60292;SDS011;52402;52.670;6.750;2024-02-16T08:54:06;19.42;;;18.23;;
60292;SDS011;52402;52.670;6.750;2024-02-16T08:56:33;19.38;;;18.17;;
60292;SDS011;52402;52.670;6.750;2024-02-16T08:59:02;19.95;;;18.65;;
60292;SDS011;52402;52.670;6.750;2024-02-16T09:03:56;19.23;;;18.02;;
60292;SDS011;52402;52.670;6.750;2024-02-16T09:06:22;18.75;;;17.55;;
60292;SDS011;52402;52.670;6.750;2024-02-16T09:08:48;19.00;;;17.80;;
60292;SDS011;52402;52.670;6.750;2024-02-16T09:11:13;18.48;;;17.27;;
60292;SDS011;52402;52.670;6.750;2024-02-16T09:13:39;19.02;;;17.83;;
60292;SDS011;52402;52.670;6.750;2024-02-16T09:16:06;18.58;;;17.38;;
60292;SDS011;52402;52.670;6.750;2024-02-16T09:18:32;18.80;;;17.60;;
60292;SDS011;52402;52.670;6.750;2024-02-16T09:20:58;19.63;;;18.42;;
60292;SDS011;52402;52.670;6.750;2024-02-16T09:23:25;18.02;;;16.92;;
60292;SDS011;52402;52.670;6.750;2024-02-16T09:25:51;18.77;;;17.58;;
60292;SDS011;52402;52.670;6.750;2024-02-16T09:28:17;19.15;;;17.95;;
60292;SDS011;52402;52.670;6.750;2024-02-16T09:30:46;18.50;;;17.30;;
60292;SDS011;52402;52.670;6.750;2024-02-16T09:33:12;18.10;;;16.92;;
60292;SDS011;52402;52.670;6.750;2024-02-16T09:35:38;18.63;;;17.42;;
60292;SDS011;52402;52.670;6.750;2024-02-16T09:38:04;18.58;;;17.38;;
60292;SDS011;52402;52.670;6.750;2024-02-16T09:40:30;18.48;;;17.27;;
60292;SDS011;52402;52.670;6.750;2024-02-16T09:42:56;18.02;;;16.92;;
60292;SDS011;52402;52.670;6.750;2024-02-16T09:45:21;17.83;;;16.73;;
60292;SDS011;52402;52.670;6.750;2024-02-16T09:47:49;17.73;;;16.63;;
60292;SDS011;52402;52.670;6.750;2024-02-16T09:50:16;17.77;;;16.67;;
60292;SDS011;52402;52.670;6.750;2024-02-16T09:52:49;18.15;;;16.98;;
60292;SDS011;52402;52.670;6.750;2024-02-16T09:55:16;17.70;;;16.60;;
60292;SDS011;52402;52.670;6.750;2024-02-16T09:57:43;17.95;;;16.85;;
60292;SDS011;52402;52.670;6.750;2024-02-16T10:00:10;17.10;;;16.00;;
60292;SDS011;52402;52.670;6.750;2024-02-16T10:02:42;18.10;;;16.90;;
60292;SDS011;52402;52.670;6.750;2024-02-16T10:05:10;18.50;;;17.30;;
60292;SDS011;52402;52.670;6.750;2024-02-16T10:07:40;17.70;;;16.60;;
60292;SDS011;52402;52.670;6.750;2024-02-16T10:10:06;17.00;;;15.90;;
60292;SDS011;52402;52.670;6.750;2024-02-16T10:12:45;17.17;;;16.08;;
60292;SDS011;52402;52.670;6.750;2024-02-16T10:15:11;17.75;;;16.65;;
60292;SDS011;52402;52.670;6.750;2024-02-16T10:17:36;17.48;;;16.38;;
60292;SDS011;52402;52.670;6.750;2024-02-16T10:20:02;17.00;;;15.90;;
60292;SDS011;52402;52.670;6.750;2024-02-16T10:22:31;16.75;;;15.65;;
60292;SDS011;52402;52.670;6.750;2024-02-16T10:25:06;16.70;;;15.70;;
60292;SDS011;52402;52.670;6.750;2024-02-16T10:27:36;17.00;;;15.90;;
60292;SDS011;52402;52.670;6.750;2024-02-16T10:30:02;17.20;;;16.10;;
60292;SDS011;52402;52.670;6.750;2024-02-16T10:32:38;16.80;;;15.70;;
60292;SDS011;52402;52.670;6.750;2024-02-16T10:35:06;17.02;;;15.93;;
60292;SDS011;52402;52.670;6.750;2024-02-16T10:37:34;17.00;;;15.90;;
60292;SDS011;52402;52.670;6.750;2024-02-16T10:40:00;16.15;;;15.15;;
60292;SDS011;52402;52.670;6.750;2024-02-16T10:42:29;16.50;;;15.40;;
60292;SDS011;52402;52.670;6.750;2024-02-16T10:44:59;16.13;;;15.13;;
60292;SDS011;52402;52.670;6.750;2024-02-16T10:47:25;16.38;;;15.38;;
60292;SDS011;52402;52.670;6.750;2024-02-16T10:49:51;16.40;;;15.40;;
60292;SDS011;52402;52.670;6.750;2024-02-16T10:52:17;16.98;;;15.90;;
60292;SDS011;52402;52.670;6.750;2024-02-16T10:54:44;17.15;;;16.05;;
60292;SDS011;52402;52.670;6.750;2024-02-16T10:57:10;16.90;;;15.90;;
60292;SDS011;52402;52.670;6.750;2024-02-16T10:59:42;16.80;;;15.80;;
60292;SDS011;52402;52.670;6.750;2024-02-16T11:02:09;17.13;;;16.02;;
60292;SDS011;52402;52.670;6.750;2024-02-16T11:04:39;16.95;;;15.85;;
60292;SDS011;52402;52.670;6.750;2024-02-16T11:07:18;16.45;;;15.45;;
60292;SDS011;52402;52.670;6.750;2024-02-16T11:09:44;16.80;;;15.80;;
60292;SDS011;52402;52.670;6.750;2024-02-16T11:12:12;16.50;;;15.50;;
60292;SDS011;52402;52.670;6.750;2024-02-16T11:14:44;17.33;;;16.23;;
60292;SDS011;52402;52.670;6.750;2024-02-16T11:17:20;17.63;;;16.52;;
60292;SDS011;52402;52.670;6.750;2024-02-16T11:19:48;17.48;;;16.38;;
60292;SDS011;52402;52.670;6.750;2024-02-16T11:22:26;17.80;;;16.70;;
60292;SDS011;52402;52.670;6.750;2024-02-16T11:24:53;17.20;;;16.10;;
60292;SDS011;52402;52.670;6.750;2024-02-16T11:27:19;17.85;;;16.75;;
60292;SDS011;52402;52.670;6.750;2024-02-16T11:29:46;18.05;;;16.95;;
60292;SDS011;52402;52.670;6.750;2024-02-16T11:32:15;18.45;;;17.35;;
60292;SDS011;52402;52.670;6.750;2024-02-16T11:34:40;17.80;;;16.70;;
60292;SDS011;52402;52.670;6.750;2024-02-16T11:37:06;18.98;;;17.77;;
60292;SDS011;52402;52.670;6.750;2024-02-16T11:39:32;19.38;;;18.17;;
60292;SDS011;52402;52.670;6.750;2024-02-16T11:42:08;18.77;;;17.58;;
60292;SDS011;52402;52.670;6.750;2024-02-16T11:44:38;18.33;;;17.23;;
60292;SDS011;52402;52.670;6.750;2024-02-16T11:47:05;18.10;;;17.00;;
60292;SDS011;52402;52.670;6.750;2024-02-16T11:49:37;18.88;;;17.67;;
60292;SDS011;52402;52.670;6.750;2024-02-16T11:52:04;18.30;;;17.20;;
60292;SDS011;52402;52.670;6.750;2024-02-16T11:54:30;19.35;;;18.15;;
60292;SDS011;52402;52.670;6.750;2024-02-16T11:56:57;19.25;;;18.05;;
60292;SDS011;52402;52.670;6.750;2024-02-16T11:59:23;19.92;;;18.73;;
60292;SDS011;52402;52.670;6.750;2024-02-16T12:01:52;21.35;;;20.05;;
60292;SDS011;52402;52.670;6.750;2024-02-16T12:04:23;21.50;;;20.20;;
60292;SDS011;52402;52.670;6.750;2024-02-16T12:07:02;22.50;;;21.10;;
60292;SDS011;52402;52.670;6.750;2024-02-16T12:09:28;22.85;;;21.45;;
60292;SDS011;52402;52.670;6.750;2024-02-16T12:11:55;22.27;;;20.88;;
60292;SDS011;52402;52.670;6.750;2024-02-16T12:14:21;22.70;;;21.30;;
60292;SDS011;52402;52.670;6.750;2024-02-16T12:17:05;22.55;;;21.15;;
60292;SDS011;52402;52.670;6.750;2024-02-16T12:19:32;23.30;;;21.80;;
60292;SDS011;52402;52.670;6.750;2024-02-16T12:21:57;23.50;;;22.00;;
60292;SDS011;52402;52.670;6.750;2024-02-16T12:24:23;23.48;;;21.98;;
60292;SDS011;52402;52.670;6.750;2024-02-16T12:26:50;23.67;;;22.15;;
60292;SDS011;52402;52.670;6.750;2024-02-16T12:29:20;23.52;;;22.02;;
60292;SDS011;52402;52.670;6.750;2024-02-16T12:31:45;24.00;;;22.40;;
60292;SDS011;52402;52.670;6.750;2024-02-16T12:34:14;24.85;;;23.25;;
60292;SDS011;52402;52.670;6.750;2024-02-16T12:36:39;25.52;;;23.83;;
60292;SDS011;52402;52.670;6.750;2024-02-16T12:39:06;24.00;;;22.40;;
60292;SDS011;52402;52.670;6.750;2024-02-16T12:41:33;23.35;;;21.75;;
60292;SDS011;52402;52.670;6.750;2024-02-16T12:43:59;24.20;;;22.60;;
60292;SDS011;52402;52.670;6.750;2024-02-16T12:46:25;24.90;;;23.20;;
60292;SDS011;52402;52.670;6.750;2024-02-16T12:48:51;24.75;;;23.05;;
60292;SDS011;52402;52.670;6.750;2024-02-16T12:51:18;24.88;;;23.17;;
60292;SDS011;52402;52.670;6.750;2024-02-16T12:53:44;24.83;;;23.13;;
60292;SDS011;52402;52.670;6.750;2024-02-16T12:56:09;24.83;;;23.13;;
60292;SDS011;52402;52.670;6.750;2024-02-16T12:58:36;24.88;;;23.17;;
60292;SDS011;52402;52.670;6.750;2024-02-16T13:01:02;24.20;;;22.50;;
60292;SDS011;52402;52.670;6.750;2024-02-16T13:03:28;24.05;;;22.35;;
60292;SDS011;52402;52.670;6.750;2024-02-16T13:05:54;24.40;;;22.80;;
60292;SDS011;52402;52.670;6.750;2024-02-16T13:08:19;24.02;;;22.42;;
60292;SDS011;52402;52.670;6.750;2024-02-16T13:10:45;25.13;;;23.42;;
60292;SDS011;52402;52.670;6.750;2024-02-16T13:13:10;25.27;;;23.58;;
60292;SDS011;52402;52.670;6.750;2024-02-16T13:15:36;25.58;;;23.88;;
60292;SDS011;52402;52.670;6.750;2024-02-16T13:18:02;23.83;;;22.23;;
60292;SDS011;52402;52.670;6.750;2024-02-16T13:20:27;25.02;;;23.33;;
60292;SDS011;52402;52.670;6.750;2024-02-16T13:22:53;24.70;;;23.00;;
60292;SDS011;52402;52.670;6.750;2024-02-16T13:25:19;23.73;;;22.13;;
60292;SDS011;52402;52.670;6.750;2024-02-16T13:27:46;25.83;;;24.13;;
60292;SDS011;52402;52.670;6.750;2024-02-16T13:30:11;25.27;;;23.58;;
60292;SDS011;52402;52.670;6.750;2024-02-16T13:32:37;25.58;;;23.88;;
60292;SDS011;52402;52.670;6.750;2024-02-16T13:35:07;25.85;;;24.05;;
60292;SDS011;52402;52.670;6.750;2024-02-16T13:37:33;26.10;;;24.30;;
60292;SDS011;52402;52.670;6.750;2024-02-16T13:39:59;26.17;;;24.38;;
60292;SDS011;52402;52.670;6.750;2024-02-16T13:42:25;24.70;;;23.00;;
60292;SDS011;52402;52.670;6.750;2024-02-16T13:44:53;24.95;;;23.25;;
60292;SDS011;52402;52.670;6.750;2024-02-16T13:47:19;25.55;;;23.75;;
60292;SDS011;52402;52.670;6.750;2024-02-16T13:49:45;26.15;;;24.35;;
60292;SDS011;52402;52.670;6.750;2024-02-16T13:52:12;25.60;;;23.80;;
60292;SDS011;52402;52.670;6.750;2024-02-16T13:54:37;24.80;;;23.10;;
60292;SDS011;52402;52.670;6.750;2024-02-16T13:57:03;25.13;;;23.42;;
60292;SDS011;52402;52.670;6.750;2024-02-16T13:59:29;24.90;;;23.20;;
60292;SDS011;52402;52.670;6.750;2024-02-16T14:01:58;24.95;;;23.25;;
60292;SDS011;52402;52.670;6.750;2024-02-16T14:04:25;24.45;;;22.75;;
60292;SDS011;52402;52.670;6.750;2024-02-16T14:06:54;24.88;;;23.17;;
60292;SDS011;52402;52.670;6.750;2024-02-16T14:09:19;25.30;;;23.60;;
60292;SDS011;52402;52.670;6.750;2024-02-16T14:11:45;25.58;;;23.80;;
60292;SDS011;52402;52.670;6.750;2024-02-16T14:14:11;25.23;;;23.52;;
60292;SDS011;52402;52.670;6.750;2024-02-16T14:16:37;25.15;;;23.45;;
60292;SDS011;52402;52.670;6.750;2024-02-16T14:19:03;25.65;;;23.95;;
60292;SDS011;52402;52.670;6.750;2024-02-16T14:21:29;26.15;;;24.35;;
60292;SDS011;52402;52.670;6.750;2024-02-16T14:23:54;26.90;;;25.10;;